createdAt,value
2022-11-30T00:02:12.106Z,27.05
2022-11-30T00:04:42.322Z,27.27
2022-11-30T00:07:13.731Z,27.00
2022-11-30T00:09:44.010Z,25.85
2022-11-30T00:12:14.223Z,28.77
2022-11-30T00:14:45.813Z,25.33
2022-11-30T00:17:16.964Z,25.27
2022-11-30T00:19:49.451Z,25.83
2022-11-30T00:22:19.725Z,25.20
2022-11-30T00:24:50.329Z,26.67
2022-11-30T00:27:20.928Z,24.80
2022-11-30T00:29:51.161Z,25.80
2022-11-30T00:32:21.370Z,26.55
2022-11-30T00:34:52.332Z,26.40
2022-11-30T00:37:22.952Z,25.80
2022-11-30T00:39:53.188Z,24.50
2022-11-30T00:42:23.371Z,23.55
2022-11-30T00:44:53.456Z,26.02
2022-11-30T00:47:23.422Z,24.25
2022-11-30T00:49:53.364Z,24.88
2022-11-30T00:52:25.159Z,24.15
2022-11-30T00:54:55.660Z,25.35
2022-11-30T00:57:26.112Z,23.55
2022-11-30T00:59:56.779Z,24.73
2022-11-30T01:02:27.676Z,24.77
2022-11-30T01:04:58.010Z,26.63
2022-11-30T01:07:28.175Z,27.42
2022-11-30T01:09:58.326Z,28.95
2022-11-30T01:12:28.398Z,27.58
2022-11-30T01:14:58.489Z,27.70
2022-11-30T01:17:28.520Z,27.85
2022-11-30T01:19:59.224Z,29.13
2022-11-30T01:22:29.369Z,29.70
2022-11-30T01:24:59.345Z,28.42
2022-11-30T01:27:29.304Z,27.73
2022-11-30T01:29:59.960Z,33.65
2022-11-30T01:32:30.751Z,29.83
2022-11-30T01:35:00.985Z,31.98
2022-11-30T01:37:32.344Z,28.13
2022-11-30T01:42:32.177Z,30.90
2022-11-30T01:45:04.087Z,38.67
2022-11-30T01:47:58.925Z,31.95
2022-11-30T01:50:38.786Z,30.45
2022-11-30T01:53:13.104Z,36.50
2022-11-30T01:55:48.819Z,33.00
2022-11-30T01:58:26.012Z,30.42
2022-11-30T02:00:57.028Z,35.22
2022-11-30T02:03:52.436Z,36.28
2022-11-30T02:06:22.686Z,38.45
2022-11-30T02:08:53.368Z,33.20
2022-11-30T02:11:24.780Z,32.67
2022-11-30T02:14:22.862Z,31.80
2022-11-30T02:16:55.812Z,29.90
2022-11-30T02:19:54.786Z,27.70
2022-11-30T02:23:01.876Z,29.20
2022-11-30T02:25:53.949Z,28.63
2022-11-30T02:29:07.508Z,31.15
2022-11-30T02:31:47.349Z,29.00
2022-11-30T02:34:22.269Z,25.83
2022-11-30T02:36:52.898Z,26.58
2022-11-30T02:39:25.017Z,28.57
2022-11-30T02:41:55.262Z,28.23
2022-11-30T02:44:27.124Z,26.67
2022-11-30T02:47:07.510Z,28.23
2022-11-30T02:49:58.534Z,26.92
2022-11-30T02:52:31.450Z,28.52
2022-11-30T02:55:10.674Z,29.85
2022-11-30T02:57:41.939Z,29.73
2022-11-30T03:02:46.088Z,31.70
2022-11-30T03:05:16.333Z,28.95
2022-11-30T03:07:46.600Z,31.50
2022-11-30T03:10:16.864Z,31.27
2022-11-30T03:12:46.898Z,27.58
2022-11-30T03:15:16.991Z,29.65
2022-11-30T03:17:46.958Z,30.75
2022-11-30T03:20:16.999Z,30.40
2022-11-30T03:22:47.045Z,31.08
2022-11-30T03:25:17.148Z,26.83
2022-11-30T03:27:47.205Z,26.27
2022-11-30T03:30:17.350Z,28.63
2022-11-30T03:32:47.482Z,28.58
2022-11-30T03:35:17.507Z,25.92
2022-11-30T03:37:49.283Z,27.63
2022-11-30T03:40:19.562Z,27.42
2022-11-30T03:42:49.776Z,27.95
2022-11-30T03:45:20.547Z,27.67
2022-11-30T03:47:50.593Z,28.63
2022-11-30T03:50:20.644Z,26.55
2022-11-30T03:52:50.803Z,27.55
2022-11-30T03:55:20.784Z,27.38
2022-11-30T03:57:50.996Z,27.63
2022-11-30T04:00:21.940Z,28.55
2022-11-30T04:02:52.237Z,28.90
2022-11-30T04:05:24.581Z,28.13
2022-11-30T04:07:54.872Z,28.67
2022-11-30T04:10:26.244Z,27.52
2022-11-30T04:12:56.573Z,26.60
2022-11-30T04:15:26.881Z,26.83
2022-11-30T04:17:57.034Z,26.38
2022-11-30T04:20:27.764Z,28.27
2022-11-30T04:23:00.421Z,27.73
2022-11-30T04:25:30.599Z,26.70
2022-11-30T04:28:01.116Z,26.25
2022-11-30T04:30:31.856Z,26.17
2022-11-30T04:33:02.182Z,26.33
2022-11-30T04:35:32.498Z,26.55
2022-11-30T04:38:03.550Z,28.25
2022-11-30T04:40:33.889Z,28.02
2022-11-30T04:43:04.219Z,25.77
2022-11-30T04:45:35.701Z,26.00
2022-11-30T04:48:07.436Z,26.90
2022-11-30T04:50:38.530Z,26.20
2022-11-30T04:53:09.255Z,27.13
2022-11-30T04:55:40.696Z,25.70
2022-11-30T05:00:40.770Z,29.20
2022-11-30T05:03:10.999Z,27.33
2022-11-30T05:05:41.339Z,28.23
2022-11-30T05:08:11.982Z,27.25
2022-11-30T05:10:42.710Z,30.02
2022-11-30T05:13:12.890Z,29.65
2022-11-30T05:15:43.047Z,27.42
2022-11-30T05:18:13.085Z,28.25
2022-11-30T05:21:01.482Z,27.65
2022-11-30T05:23:32.236Z,26.03
2022-11-30T05:26:20.596Z,26.45
2022-11-30T05:31:36.751Z,26.52
2022-11-30T05:34:25.181Z,26.55
2022-11-30T05:37:15.001Z,27.00
2022-11-30T05:40:03.427Z,26.33
2022-11-30T05:42:33.861Z,26.73
2022-11-30T05:48:08.454Z,25.50
2022-11-30T05:50:38.892Z,26.40
2022-11-30T05:53:09.048Z,25.52
2022-11-30T05:55:39.116Z,25.50
2022-11-30T05:58:09.301Z,25.08
2022-11-30T06:00:39.718Z,24.65
2022-11-30T06:03:30.215Z,25.20
2022-11-30T06:06:00.651Z,24.30
2022-11-30T06:08:30.932Z,24.67
2022-11-30T06:11:04.387Z,24.40
2022-11-30T06:13:37.302Z,23.65
2022-11-30T06:16:08.622Z,23.77
2022-11-30T06:18:40.605Z,24.92
2022-11-30T06:21:13.762Z,24.02
2022-11-30T06:26:29.525Z,24.08
2022-11-30T06:28:59.530Z,24.70
2022-11-30T06:31:29.968Z,24.48
2022-11-30T06:34:01.712Z,23.63
2022-11-30T06:36:35.725Z,23.65
2022-11-30T06:39:49.967Z,24.33
2022-11-30T06:42:15.655Z,24.23
2022-11-30T06:44:46.162Z,23.83
2022-11-30T06:47:16.588Z,23.63
2022-11-30T06:49:46.820Z,22.70
2022-11-30T06:52:17.109Z,22.13
2022-11-30T06:54:48.771Z,22.67
2022-11-30T06:57:37.278Z,22.38
2022-11-30T07:00:08.484Z,19.08
2022-11-30T07:02:39.393Z,21.33
2022-11-30T07:05:09.959Z,23.17
2022-11-30T07:07:58.520Z,22.15
2022-11-30T07:10:48.304Z,19.63
2022-11-30T07:13:22.165Z,21.33
2022-11-30T07:15:52.338Z,21.75
2022-11-30T07:18:25.860Z,19.50
2022-11-30T07:21:18.576Z,20.08
2022-11-30T07:24:07.217Z,20.65
2022-11-30T07:26:55.914Z,18.77
2022-11-30T07:29:26.045Z,18.98
2022-11-30T07:31:56.765Z,17.55
2022-11-30T07:34:27.185Z,17.80
2022-11-30T07:36:57.431Z,18.43
2022-11-30T07:48:23.538Z,16.42
2022-11-30T07:53:39.541Z,18.00
2022-11-30T07:56:13.119Z,18.42
2022-11-30T07:58:44.137Z,18.20
2022-11-30T08:01:35.030Z,17.00
2022-11-30T08:04:05.356Z,17.00
2022-11-30T08:06:35.632Z,16.92
2022-11-30T08:09:07.482Z,17.23
2022-11-30T08:11:38.491Z,16.17
2022-11-30T08:14:08.820Z,17.75
2022-11-30T08:16:42.569Z,17.60
2022-11-30T08:19:13.105Z,16.75
2022-11-30T08:21:43.306Z,17.40
2022-11-30T08:24:16.199Z,14.82
2022-11-30T08:26:46.548Z,16.33
2022-11-30T08:29:16.720Z,16.98
2022-11-30T08:31:46.992Z,16.30
2022-11-30T08:34:18.704Z,16.42
2022-11-30T08:36:51.740Z,15.68
2022-11-30T08:39:22.312Z,14.30
2022-11-30T08:41:54.373Z,15.88
2022-11-30T08:44:24.637Z,15.15
2022-11-30T08:46:55.505Z,15.13
2022-11-30T08:49:26.406Z,14.57
2022-11-30T08:54:50.391Z,12.23
2022-11-30T08:57:23.831Z,11.00
2022-11-30T08:59:53.947Z,11.93
2022-11-30T09:02:24.049Z,13.55
2022-11-30T09:04:56.292Z,13.43
2022-11-30T09:07:26.556Z,11.25
2022-11-30T09:09:56.901Z,11.52
2022-11-30T09:12:27.184Z,11.70
2022-11-30T09:14:58.564Z,10.35
2022-11-30T09:17:30.699Z,12.02
2022-11-30T09:20:00.933Z,12.55
2022-11-30T09:22:32.312Z,10.77
2022-11-30T09:25:02.539Z,11.65
2022-11-30T09:27:35.242Z,10.30
2022-11-30T09:30:06.419Z,10.57
2022-11-30T09:32:36.626Z,10.30
2022-11-30T09:35:12.461Z,9.80
2022-11-30T09:37:43.583Z,9.00
2022-11-30T09:40:16.684Z,8.85
2022-11-30T09:43:04.982Z,9.10
2022-11-30T09:45:38.306Z,8.07
2022-11-30T09:48:41.312Z,8.18
2022-11-30T09:51:21.375Z,8.57
2022-11-30T09:54:01.146Z,9.07
2022-11-30T09:56:37.178Z,8.45
2022-11-30T09:59:16.709Z,10.35
2022-11-30T10:01:55.380Z,10.85
2022-11-30T10:04:33.894Z,10.70
2022-11-30T10:07:19.558Z,10.70
2022-11-30T10:10:30.400Z,10.52
2022-11-30T10:13:12.224Z,9.85
2022-11-30T10:16:19.302Z,11.18
2022-11-30T10:19:10.809Z,11.02
2022-11-30T10:24:35.330Z,11.48
2022-11-30T10:27:19.099Z,11.75
2022-11-30T10:29:49.281Z,9.45
2022-11-30T10:32:32.324Z,8.85
2022-11-30T10:35:21.171Z,9.30
2022-11-30T10:37:54.640Z,10.07
2022-11-30T10:41:02.630Z,9.05
2022-11-30T10:43:45.713Z,9.70
2022-11-30T10:46:26.327Z,9.80
2022-11-30T10:49:07.529Z,14.47
2022-11-30T10:51:41.493Z,21.23
2022-11-30T10:54:21.922Z,19.38
2022-11-30T10:56:52.436Z,16.98
2022-11-30T10:59:28.528Z,15.57
2022-11-30T11:01:58.769Z,12.88
2022-11-30T11:04:30.121Z,12.27
2022-11-30T11:07:16.431Z,11.68
2022-11-30T11:09:54.038Z,11.10
2022-11-30T11:12:28.987Z,12.18
2022-11-30T11:15:29.961Z,12.23
2022-11-30T11:18:27.477Z,12.70
2022-11-30T11:21:07.252Z,12.95
2022-11-30T11:23:41.281Z,12.85
2022-11-30T11:26:30.055Z,14.32
2022-11-30T11:29:04.581Z,13.13
2022-11-30T11:31:34.766Z,13.65
2022-11-30T11:34:06.428Z,13.40
2022-11-30T11:36:40.793Z,11.90
2022-11-30T11:39:28.728Z,12.68
2022-11-30T11:41:59.607Z,11.48
2022-11-30T11:44:30.553Z,11.77
2022-11-30T11:47:03.993Z,11.30
2022-11-30T11:49:41.549Z,12.25
2022-11-30T11:52:15.112Z,10.77
2022-11-30T11:54:53.089Z,8.90
2022-11-30T11:57:36.320Z,9.52
2022-11-30T12:00:28.303Z,11.45
2022-11-30T12:03:29.702Z,9.82
2022-11-30T12:06:06.346Z,9.80
2022-11-30T12:08:49.648Z,10.70
2022-11-30T12:11:49.669Z,11.20
2022-11-30T12:14:21.938Z,11.57
2022-11-30T12:17:26.746Z,12.02
2022-11-30T12:20:29.450Z,12.70
2022-11-30T12:23:32.549Z,14.45
2022-11-30T12:26:23.643Z,13.32
2022-11-30T12:29:02.405Z,13.63
2022-11-30T12:32:02.360Z,13.27
2022-11-30T12:35:06.234Z,13.20
2022-11-30T12:37:43.025Z,12.98
2022-11-30T12:40:52.374Z,13.13
2022-11-30T12:43:41.822Z,11.70
2022-11-30T12:46:34.599Z,11.68
2022-11-30T12:49:27.929Z,11.82
2022-11-30T12:52:19.228Z,11.75
2022-11-30T12:55:01.908Z,12.10
2022-11-30T12:58:16.096Z,11.75
2022-11-30T13:01:07.784Z,11.40
2022-11-30T13:04:09.932Z,11.30
2022-11-30T13:06:56.139Z,11.35
2022-11-30T13:09:28.891Z,11.38
2022-11-30T13:12:04.336Z,11.90
2022-11-30T13:14:37.279Z,10.68
2022-11-30T13:17:09.929Z,11.20
2022-11-30T13:20:10.534Z,11.52
2022-11-30T13:22:53.751Z,11.75
2022-11-30T13:28:44.305Z,11.98
2022-11-30T13:31:17.158Z,13.38
2022-11-30T13:33:51.461Z,13.13
2022-11-30T13:36:43.457Z,13.35
2022-11-30T13:39:16.440Z,13.13
2022-11-30T13:42:05.563Z,13.60
2022-11-30T13:44:46.442Z,14.30
2022-11-30T13:50:41.913Z,16.38
2022-11-30T13:53:21.922Z,16.60
2022-11-30T13:55:52.130Z,15.93
2022-11-30T13:58:23.586Z,15.55
2022-11-30T14:03:35.058Z,18.30
2022-11-30T14:06:29.070Z,18.08
2022-11-30T14:09:00.009Z,18.17
2022-11-30T14:11:43.513Z,17.52
2022-11-30T14:14:46.865Z,17.67
2022-11-30T14:17:22.973Z,16.35
2022-11-30T14:20:02.111Z,17.60
2022-11-30T14:22:33.462Z,18.70
2022-11-30T14:27:35.064Z,17.55
2022-11-30T14:30:07.432Z,18.73
2022-11-30T14:32:43.460Z,18.25
2022-11-30T14:35:22.713Z,14.05
2022-11-30T14:37:58.386Z,14.52
2022-11-30T14:40:33.345Z,15.27
2022-11-30T14:43:06.336Z,14.02
2022-11-30T14:45:37.640Z,13.45
2022-11-30T14:50:45.039Z,13.02
2022-11-30T14:53:15.407Z,14.18
2022-11-30T14:55:59.256Z,13.50
2022-11-30T14:58:51.314Z,13.95
2022-11-30T15:01:34.627Z,14.50
2022-11-30T15:04:17.800Z,14.27
2022-11-30T15:06:48.338Z,14.15
2022-11-30T15:09:31.693Z,14.90
2022-11-30T15:12:02.370Z,14.30
2022-11-30T15:14:34.341Z,15.57
2022-11-30T15:17:04.698Z,15.07
2022-11-30T15:19:39.995Z,13.77
2022-11-30T15:22:26.524Z,13.50
2022-11-30T15:24:56.920Z,14.45
2022-11-30T15:27:30.258Z,14.47
2022-11-30T15:30:06.028Z,14.45
2022-11-30T15:32:36.579Z,14.25
2022-11-30T15:35:07.704Z,15.60
2022-11-30T15:37:45.728Z,14.35
2022-11-30T15:40:33.261Z,16.27
2022-11-30T15:43:04.321Z,18.23
2022-11-30T15:45:39.205Z,18.40
2022-11-30T15:48:33.859Z,14.75
2022-11-30T15:51:05.053Z,18.52
2022-11-30T15:53:38.626Z,17.20
2022-11-30T15:56:25.119Z,22.05
2022-11-30T15:59:16.995Z,42.00
2022-11-30T16:02:10.461Z,34.42
2022-11-30T16:04:59.413Z,38.55
2022-11-30T16:07:42.625Z,46.00
2022-11-30T16:10:21.547Z,59.85
2022-11-30T16:12:54.390Z,58.72
2022-11-30T16:15:26.849Z,57.15
2022-11-30T16:18:05.627Z,46.53
2022-11-30T16:20:36.144Z,58.88
2022-11-30T16:23:06.540Z,22.90
2022-11-30T16:25:36.915Z,91.25
2022-11-30T16:28:07.231Z,79.85
2022-11-30T16:30:37.739Z,146.90
2022-11-30T16:33:08.240Z,142.53
2022-11-30T16:35:43.873Z,128.30
2022-11-30T16:38:14.213Z,317.17
2022-11-30T16:40:44.294Z,371.55
2022-11-30T16:43:14.974Z,171.55
2022-11-30T16:45:48.879Z,143.43
2022-11-30T16:48:19.938Z,571.47
2022-11-30T16:50:50.019Z,792.42
2022-11-30T16:53:23.796Z,374.80
2022-11-30T16:55:56.243Z,291.90
2022-11-30T16:58:26.193Z,796.80
2022-11-30T17:00:57.435Z,99.80
2022-11-30T17:03:32.656Z,814.63
2022-11-30T17:06:03.181Z,390.42
2022-11-30T17:08:33.430Z,319.98
2022-11-30T17:11:03.773Z,853.53
2022-11-30T17:13:34.058Z,507.10
2022-11-30T17:16:04.369Z,220.35
2022-11-30T17:18:34.640Z,218.85
2022-11-30T17:21:04.906Z,312.05
2022-11-30T17:23:35.149Z,89.63
2022-11-30T17:26:05.365Z,63.88
2022-11-30T17:28:35.538Z,163.48
2022-11-30T17:31:06.352Z,79.15
2022-11-30T17:33:37.989Z,93.22
2022-11-30T17:36:10.832Z,237.40
2022-11-30T17:38:42.005Z,238.32
2022-11-30T17:43:50.416Z,46.08
2022-11-30T17:46:21.791Z,24.02
2022-11-30T17:48:52.487Z,21.50
2022-11-30T17:51:23.181Z,33.30
2022-11-30T17:53:53.617Z,26.88
2022-11-30T17:56:23.789Z,165.88
2022-11-30T17:58:54.223Z,423.98
2022-11-30T18:01:27.193Z,303.63
2022-11-30T18:03:58.817Z,363.20
2022-11-30T18:06:29.181Z,265.58
2022-11-30T18:09:00.165Z,327.60
2022-11-30T18:11:30.556Z,73.90
2022-11-30T18:14:04.150Z,61.13
2022-11-30T18:16:40.569Z,152.38
2022-11-30T18:19:15.521Z,71.95
2022-11-30T18:21:48.388Z,43.13
2022-11-30T18:24:22.548Z,85.65
2022-11-30T18:26:55.992Z,129.75
2022-11-30T18:29:26.077Z,160.17
2022-11-30T18:31:56.049Z,287.55
2022-11-30T18:34:26.164Z,118.25
2022-11-30T18:36:56.421Z,171.27
2022-11-30T18:39:26.586Z,193.18
2022-11-30T18:41:56.723Z,123.97
2022-11-30T18:44:26.755Z,140.77
2022-11-30T18:46:57.300Z,189.95
2022-11-30T18:49:27.486Z,92.47
2022-11-30T18:51:57.578Z,199.27
2022-11-30T18:54:28.070Z,285.85
2022-11-30T18:56:58.291Z,292.50
2022-11-30T18:59:28.527Z,331.45
2022-11-30T19:02:00.295Z,359.42
2022-11-30T19:04:30.539Z,32.38
2022-11-30T19:07:00.651Z,100.78
2022-11-30T19:09:30.790Z,147.88
2022-11-30T19:12:02.291Z,173.95
2022-11-30T19:14:32.765Z,148.38
2022-11-30T19:17:02.963Z,294.40
2022-11-30T19:19:33.256Z,129.32
2022-11-30T19:22:03.610Z,32.53
2022-11-30T19:24:34.256Z,51.90
2022-11-30T19:27:04.511Z,199.33
2022-11-30T19:29:34.670Z,199.73
2022-11-30T19:32:04.683Z,124.10
2022-11-30T19:34:34.898Z,180.75
2022-11-30T19:37:04.922Z,140.15
2022-11-30T19:39:35.753Z,102.55
2022-11-30T19:42:06.722Z,81.72
2022-11-30T19:44:36.945Z,124.53
2022-11-30T19:47:07.178Z,197.50
2022-11-30T19:49:39.317Z,178.88
2022-11-30T19:52:09.564Z,236.00
2022-11-30T19:54:39.523Z,279.25
2022-11-30T19:57:10.187Z,268.27
2022-11-30T19:59:40.343Z,180.88
2022-11-30T20:02:14.392Z,283.58
2022-11-30T20:04:44.801Z,297.63
2022-11-30T20:07:16.083Z,14.00
2022-11-30T20:09:46.393Z,13.45
2022-11-30T20:12:16.338Z,12.82
2022-11-30T20:14:46.947Z,15.02
2022-11-30T20:17:17.304Z,62.63
2022-11-30T20:19:47.284Z,36.63
2022-11-30T20:22:17.254Z,41.92
2022-11-30T20:24:47.446Z,165.32
2022-11-30T20:27:24.119Z,110.10
2022-11-30T20:29:54.744Z,77.70
2022-11-30T20:32:25.111Z,71.90
2022-11-30T20:34:55.182Z,146.05
2022-11-30T20:37:26.458Z,370.50
2022-11-30T20:42:28.014Z,615.15
2022-11-30T20:45:00.045Z,376.17
2022-11-30T20:47:34.772Z,255.95
2022-11-30T20:50:07.072Z,248.02
2022-11-30T20:52:37.412Z,361.10
2022-11-30T20:55:08.067Z,241.80
2022-11-30T20:57:38.293Z,365.30
2022-11-30T21:00:13.065Z,737.30
2022-11-30T21:02:43.757Z,817.25
2022-11-30T21:05:14.263Z,290.77
2022-11-30T21:07:44.495Z,13.35
2022-11-30T21:10:15.413Z,71.53
2022-11-30T21:12:45.645Z,14.05
2022-11-30T21:15:15.732Z,12.65
2022-11-30T21:17:45.835Z,68.35
2022-11-30T21:20:15.782Z,72.35
2022-11-30T21:22:45.751Z,121.30
2022-11-30T21:25:15.711Z,86.40
2022-11-30T21:27:45.952Z,63.40
2022-11-30T21:30:16.725Z,171.45
2022-11-30T21:32:48.036Z,10.20
2022-11-30T21:35:18.262Z,17.25
2022-11-30T21:37:48.261Z,14.02
2022-11-30T21:40:20.507Z,198.02
2022-11-30T21:42:52.082Z,281.23
2022-11-30T21:45:22.370Z,118.25
2022-11-30T21:47:53.073Z,98.80
2022-11-30T21:50:27.067Z,101.60
2022-11-30T21:52:57.528Z,10.23
2022-11-30T21:55:27.504Z,10.02
2022-11-30T21:57:57.680Z,66.82
2022-11-30T22:00:28.276Z,198.30
2022-11-30T22:02:58.522Z,248.30
2022-11-30T22:05:29.795Z,280.40
2022-11-30T22:07:59.980Z,302.30
2022-11-30T22:10:29.961Z,565.10
2022-11-30T22:13:00.779Z,673.65
2022-11-30T22:15:32.058Z,774.63
2022-11-30T22:20:31.834Z,563.70
2022-11-30T22:23:02.984Z,572.65
2022-11-30T22:28:02.775Z,664.83
2022-11-30T22:30:33.619Z,365.30
2022-11-30T22:33:03.946Z,485.33
2022-11-30T22:35:34.143Z,363.60
2022-11-30T22:38:05.592Z,822.17
2022-11-30T22:40:36.273Z,504.42
2022-11-30T22:43:06.472Z,745.90
2022-11-30T22:45:37.008Z,151.57
2022-11-30T22:48:07.561Z,202.02
2022-11-30T22:50:37.692Z,218.45
2022-11-30T22:55:55.297Z,6.78
2022-11-30T22:58:26.886Z,6.85
2022-11-30T23:00:57.508Z,6.65
2022-11-30T23:03:31.111Z,7.40
2022-11-30T23:06:01.983Z,6.40
2022-11-30T23:08:33.146Z,6.72
2022-11-30T23:11:06.403Z,6.70
2022-11-30T23:13:37.208Z,6.78
2022-11-30T23:16:07.738Z,6.22
2022-11-30T23:19:03.883Z,5.80
2022-11-30T23:21:40.930Z,6.47
2022-11-30T23:24:22.818Z,6.32
2022-11-30T23:26:55.857Z,5.75
2022-11-30T23:29:26.198Z,6.10
2022-11-30T23:31:56.375Z,5.90
2022-11-30T23:34:26.556Z,6.05
2022-11-30T23:36:56.657Z,5.70
2022-11-30T23:39:26.991Z,5.88
2022-11-30T23:41:58.292Z,5.70
2022-11-30T23:46:58.167Z,5.97
2022-11-30T23:49:28.354Z,5.63
2022-11-30T23:52:01.615Z,5.65
2022-11-30T23:54:31.795Z,5.78
2022-11-30T23:57:01.943Z,6.50
2022-11-30T23:59:31.929Z,6.55
